Time;durP1;ratioP1;P1;durP2;ratioP2;P2;SDS_P1;SDS_P2;PMS_P1;PMS_P2;Temp;Humidity;BMP_temperature;BMP_pressure;BME280_temperature;BME280_humidity;BME280_pressure;Samples;Min_cycle;Max_cycle;Signal;HPM_P1;HPM_P2
2023/01/14 00:02:24;;;;;;;5.63;2.15;;;;;;;;;;5006066;28;20412;-89
2023/01/14 00:04:52;;;;;;;7.97;3.22;;;;;;;;;;5011682;28;20050;-88
2023/01/14 00:07:19;;;;;;;6.63;3.30;;;;;;;;;;4994152;28;20408;-88
2023/01/14 00:09:46;;;;;;;7.85;2.72;;;;;;;;;;5006429;28;20057;-88
2023/01/14 00:12:14;;;;;;;5.72;2.45;;;;;;;;;;4998739;28;20411;-89
2023/01/14 00:14:41;;;;;;;14.98;3.80;;;;;;;;;;4990754;28;20507;-89
2023/01/14 00:17:08;;;;;;;11.48;3.47;;;;;;;;;;5013438;28;20419;-88
2023/01/14 00:19:38;;;;;;;9.18;3.00;;;;;;;;;;4980029;28;20431;-88
2023/01/14 00:22:05;;;;;;;8.27;3.05;;;;;;;;;;5002739;28;20065;-89
2023/01/14 00:24:33;;;;;;;9.90;2.47;;;;;;;;;;4990532;28;20436;-89
2023/01/14 00:27:00;;;;;;;17.77;4.38;;;;;;;;;;4995537;28;20057;-89
2023/01/14 00:29:29;;;;;;;8.18;2.75;;;;;;;;;;4998309;28;20065;-88
2023/01/14 00:31:58;;;;;;;7.50;4.15;;;;;;;;;;4975005;28;20053;-88
2023/01/14 00:34:27;;;;;;;12.13;2.83;;;;;;;;;;4993261;28;20058;-88
2023/01/14 00:36:56;;;;;;;9.43;3.17;;;;;;;;;;5001801;28;20039;-88
2023/01/14 00:39:24;;;;;;;8.23;4.07;;;;;;;;;;4971368;28;20087;-88
2023/01/14 00:41:52;;;;;;;10.43;2.72;;;;;;;;;;5012532;28;20064;-88
2023/01/14 00:44:19;;;;;;;11.52;2.85;;;;;;;;;;5000370;28;20057;-89
2023/01/14 00:46:49;;;;;;;8.13;2.55;;;;;;;;;;5004012;28;20479;-89
2023/01/14 00:49:19;;;;;;;8.73;3.53;;;;;;;;;;4994277;28;20415;-88
2023/01/14 00:51:47;;;;;;;5.82;3.22;;;;;;;;;;5003403;28;20046;-88
2023/01/14 00:54:16;;;;;;;6.38;3.55;;;;;;;;;;5012180;28;20049;-88
2023/01/14 00:56:43;;;;;;;7.10;2.85;;;;;;;;;;4992995;28;20441;-88
2023/01/14 00:59:17;;;;;;;9.70;2.83;;;;;;;;;;4993718;28;20054;-88
2023/01/14 01:01:44;;;;;;;5.28;2.55;;;;;;;;;;5006278;28;20054;-88
2023/01/14 01:04:11;;;;;;;10.85;3.92;;;;;;;;;;4998470;28;20403;-88
2023/01/14 01:06:39;;;;;;;7.07;3.20;;;;;;;;;;4991827;28;20060;-88
2023/01/14 01:09:06;;;;;;;6.88;2.83;;;;;;;;;;4981140;28;20061;-88
2023/01/14 01:11:35;;;;;;;10.90;4.60;;;;;;;;;;4986346;28;20054;-88
2023/01/14 01:14:02;;;;;;;12.18;5.57;;;;;;;;;;5006863;28;20041;-88
2023/01/14 01:16:29;;;;;;;11.27;3.80;;;;;;;;;;4985241;28;20046;-87
2023/01/14 01:18:57;;;;;;;8.32;3.28;;;;;;;;;;5012217;28;20049;-88
2023/01/14 01:21:25;;;;;;;10.88;3.17;;;;;;;;;;4987157;28;20049;-88
2023/01/14 01:23:54;;;;;;;8.07;2.20;;;;;;;;;;4993708;28;20057;-88
2023/01/14 01:26:23;;;;;;;10.48;3.38;;;;;;;;;;4968675;28;20059;-88
2023/01/14 01:28:53;;;;;;;16.88;3.72;;;;;;;;;;4977864;28;20042;-88
2023/01/14 01:31:22;;;;;;;11.32;3.00;;;;;;;;;;4999177;28;20034;-88
2023/01/14 01:33:49;;;;;;;10.43;3.10;;;;;;;;;;5001403;28;20053;-88
2023/01/14 01:36:19;;;;;;;10.82;3.78;;;;;;;;;;4990038;28;20033;-88
2023/01/14 01:38:47;;;;;;;13.50;3.60;;;;;;;;;;4978774;28;20046;-88
2023/01/14 01:41:15;;;;;;;8.82;3.03;;;;;;;;;;4992252;28;20045;-88
2023/01/14 01:44:28;;;;;;;11.90;4.50;;;;;;;;;;4985166;28;20046;-88
2023/01/14 01:46:56;;;;;;;11.63;4.00;;;;;;;;;;4936224;28;20055;-88
2023/01/14 01:49:29;;;;;;;10.63;2.78;;;;;;;;;;4985051;28;20575;-88
2023/01/14 01:52:00;;;;;;;6.63;3.10;;;;;;;;;;5011120;28;20061;-88
2023/01/14 01:54:30;;;;;;;7.78;3.42;;;;;;;;;;4973932;28;20052;-88
2023/01/14 01:56:58;;;;;;;7.57;3.35;;;;;;;;;;5001573;28;20042;-88
2023/01/14 01:59:29;;;;;;;8.93;2.85;;;;;;;;;;4975529;28;20065;-88
2023/01/14 02:01:58;;;;;;;8.07;3.63;;;;;;;;;;5010398;28;20043;-88
2023/01/14 02:04:25;;;;;;;6.90;3.05;;;;;;;;;;4994620;28;20432;-88
2023/01/14 02:06:53;;;;;;;9.77;3.53;;;;;;;;;;4992203;28;20049;-88
2023/01/14 02:09:21;;;;;;;12.57;3.28;;;;;;;;;;4975581;28;20057;-88
2023/01/14 02:12:02;;;;;;;25.65;3.22;;;;;;;;;;4986213;28;20049;-88
2023/01/14 02:14:38;;;;;;;11.57;3.00;;;;;;;;;;4997989;28;20042;-88
2023/01/14 02:17:14;;;;;;;8.43;2.45;;;;;;;;;;4994858;28;20415;-88
2023/01/14 02:19:54;;;;;;;5.63;3.17;;;;;;;;;;4992137;28;20046;-88
2023/01/14 02:22:33;;;;;;;7.78;4.13;;;;;;;;;;4999588;28;20053;-88
2023/01/14 02:25:20;;;;;;;5.65;3.13;;;;;;;;;;4977618;28;20265;-88
2023/01/14 02:27:53;;;;;;;4.78;2.33;;;;;;;;;;4994729;28;20045;-88
2023/01/14 02:30:33;;;;;;;;;;;;;;;;;;5002870;28;20054;-87
2023/01/14 02:33:06;;;;;;;6.13;2.05;;;;;;;;;;5012294;28;19928;-87
2023/01/14 02:35:40;;;;;;;9.02;3.70;;;;;;;;;;4994641;28;20060;-87
2023/01/14 02:38:17;;;;;;;6.13;2.33;;;;;;;;;;5006090;28;20046;-89
2023/01/14 02:40:49;;;;;;;5.72;2.95;;;;;;;;;;5007362;28;20417;-88
2023/01/14 02:46:20;;;;;;;9.00;3.03;;;;;;;;;;4970382;28;20053;-88
2023/01/14 02:48:49;;;;;;;5.32;3.95;;;;;;;;;;5000107;28;20042;-89
2023/01/14 02:51:18;;;;;;;10.07;3.28;;;;;;;;;;4989138;28;20051;-88
2023/01/14 02:53:47;;;;;;;12.32;2.65;;;;;;;;;;4996871;28;20046;-88
2023/01/14 02:56:15;;;;;;;9.75;3.15;;;;;;;;;;4974543;28;20058;-89
2023/01/14 02:59:02;;;;;;;6.97;2.97;;;;;;;;;;5008370;28;20481;-88
2023/01/14 03:01:44;;;;;;;8.07;2.45;;;;;;;;;;4977679;28;20054;-89
2023/01/14 03:04:23;;;;;;;12.18;2.53;;;;;;;;;;4998452;28;20065;-88
2023/01/14 03:07:02;;;;;;;10.25;3.97;;;;;;;;;;4985905;28;20073;-88
2023/01/14 03:09:35;;;;;;;8.45;3.58;;;;;;;;;;4996779;28;20041;-88
2023/01/14 03:12:08;;;;;;;16.73;4.57;;;;;;;;;;4997495;28;20054;-88
2023/01/14 03:14:43;;;;;;;8.70;2.58;;;;;;;;;;4977429;28;20053;-88
2023/01/14 03:17:19;;;;;;;5.10;2.55;;;;;;;;;;4988767;28;20425;-88
2023/01/14 03:19:51;;;;;;;9.65;2.53;;;;;;;;;;4989025;28;20419;-88
2023/01/14 03:22:18;;;;;;;6.55;2.97;;;;;;;;;;4977687;28;20065;-88
2023/01/14 03:24:46;;;;;;;8.00;2.42;;;;;;;;;;5002101;28;20461;-88
2023/01/14 03:27:21;;;;;;;7.07;2.53;;;;;;;;;;5006344;28;20436;-88
2023/01/14 03:29:54;;;;;;;9.32;3.10;;;;;;;;;;4998179;28;20042;-88
2023/01/14 03:32:26;;;;;;;5.82;3.17;;;;;;;;;;4974465;28;20055;-88
2023/01/14 03:34:58;;;;;;;8.95;4.28;;;;;;;;;;5004232;28;20073;-88
2023/01/14 03:37:26;;;;;;;6.75;2.92;;;;;;;;;;5001747;28;20046;-88
2023/01/14 03:39:54;;;;;;;10.30;3.17;;;;;;;;;;5007356;28;20052;-88
2023/01/14 03:42:24;;;;;;;5.60;2.70;;;;;;;;;;5008716;28;20049;-87
2023/01/14 03:45:03;;;;;;;8.25;3.22;;;;;;;;;;5004404;28;20384;-87
2023/01/14 03:47:34;;;;;;;8.32;2.53;;;;;;;;;;4995533;28;20064;-87
2023/01/14 03:50:04;;;;;;;7.63;3.58;;;;;;;;;;5008393;28;20039;-87
2023/01/14 03:52:40;;;;;;;4.30;2.80;;;;;;;;;;5005035;28;20649;-87
2023/01/14 03:55:15;;;;;;;11.10;3.60;;;;;;;;;;4995178;28;20477;-87
2023/01/14 03:57:47;;;;;;;11.77;2.25;;;;;;;;;;4999925;28;20045;-87
2023/01/14 04:00:19;;;;;;;9.13;2.72;;;;;;;;;;4985824;28;20050;-87
2023/01/14 04:02:48;;;;;;;9.25;3.40;;;;;;;;;;5011123;28;20049;-87
2023/01/14 04:05:16;;;;;;;6.80;2.28;;;;;;;;;;5005146;28;20061;-87
2023/01/14 04:07:43;;;;;;;10.57;2.58;;;;;;;;;;5011132;28;20076;-87
2023/01/14 04:10:11;;;;;;;10.32;2.38;;;;;;;;;;4984753;28;20053;-87
2023/01/14 04:15:20;;;;;;;5.63;2.95;;;;;;;;;;4990080;28;20520;-87
2023/01/14 04:15:25;;;;;;;10.05;3.05;;;;;;;;;;4972268;28;20065;-87
2023/01/14 04:17:54;;;;;;;14.65;3.45;;;;;;;;;;5005461;28;20389;-86
2023/01/14 04:20:21;;;;;;;7.00;2.22;;;;;;;;;;5000809;28;20116;-87
2023/01/14 04:22:49;;;;;;;7.07;2.53;;;;;;;;;;4987564;28;20411;-87
2023/01/14 04:25:16;;;;;;;4.00;2.75;;;;;;;;;;4992021;28;20054;-87
2023/01/14 04:27:43;;;;;;;3.22;2.25;;;;;;;;;;4992765;28;20499;-87
2023/01/14 04:30:12;;;;;;;6.57;2.40;;;;;;;;;;4992424;28;20382;-87
2023/01/14 04:32:39;;;;;;;6.43;2.15;;;;;;;;;;5001786;28;20057;-87
2023/01/14 04:35:09;;;;;;;10.00;2.85;;;;;;;;;;4997566;28;20058;-87
2023/01/14 04:37:36;;;;;;;10.57;4.55;;;;;;;;;;5026147;22;20037;-85
2023/01/14 04:40:04;;;;;;;7.05;3.35;;;;;;;;;;5012202;28;20060;-86
2023/01/14 04:42:32;;;;;;;5.03;2.58;;;;;;;;;;5003724;28;20050;-86
2023/01/14 04:45:04;;;;;;;8.90;3.45;;;;;;;;;;4991162;28;20400;-85
2023/01/14 04:47:33;;;;;;;5.13;2.28;;;;;;;;;;5004049;28;20072;-85
2023/01/14 04:50:30;;;;;;;7.07;2.50;;;;;;;;;;5009889;28;20046;-86
2023/01/14 04:52:50;;;;;;;14.82;4.53;;;;;;;;;;5002128;28;20049;-85
2023/01/14 04:55:18;;;;;;;4.03;1.85;;;;;;;;;;4984598;28;20042;-85
2023/01/14 04:57:48;;;;;;;5.20;2.10;;;;;;;;;;5026275;28;20061;-86
2023/01/14 05:00:16;;;;;;;2.65;2.08;;;;;;;;;;5019350;28;20504;-86
2023/01/14 05:02:43;;;;;;;4.40;2.10;;;;;;;;;;4987785;28;20065;-85
2023/01/14 05:05:10;;;;;;;4.80;1.98;;;;;;;;;;5012831;28;20054;-85
2023/01/14 05:07:37;;;;;;;8.93;3.95;;;;;;;;;;5011299;28;20049;-85
2023/01/14 05:10:10;;;;;;;6.93;3.72;;;;;;;;;;4990367;28;20050;-86
2023/01/14 05:12:37;;;;;;;12.80;3.45;;;;;;;;;;5009789;28;20049;-85
2023/01/14 05:15:05;;;;;;;5.22;2.20;;;;;;;;;;5009679;28;20053;-85
2023/01/14 05:17:32;;;;;;;4.53;2.65;;;;;;;;;;4990960;28;20046;-85
2023/01/14 05:20:00;;;;;;;7.95;2.30;;;;;;;;;;4990560;28;20034;-85
2023/01/14 05:22:27;;;;;;;19.05;4.25;;;;;;;;;;5009058;28;20050;-86
2023/01/14 05:24:54;;;;;;;5.20;3.08;;;;;;;;;;5012676;28;20046;-85
2023/01/14 05:27:23;;;;;;;11.30;3.40;;;;;;;;;;5001041;28;20054;-85
2023/01/14 05:29:50;;;;;;;7.80;3.28;;;;;;;;;;5008314;28;20034;-85
2023/01/14 05:32:17;;;;;;;8.55;3.55;;;;;;;;;;4993475;28;20053;-85
2023/01/14 05:34:44;;;;;;;6.88;2.85;;;;;;;;;;4988856;28;20053;-85
2023/01/14 05:37:11;;;;;;;5.93;2.25;;;;;;;;;;5011948;28;20151;-85
2023/01/14 05:39:38;;;;;;;3.65;2.10;;;;;;;;;;5009580;28;20069;-85
2023/01/14 05:47:41;;;;;;;3.72;2.50;;;;;;;;;;5005136;28;20053;-86
2023/01/14 05:50:10;;;;;;;7.47;3.38;;;;;;;;;;4975002;28;20050;-86
2023/01/14 05:52:39;;;;;;;5.45;2.38;;;;;;;;;;4981854;28;20500;-85
2023/01/14 05:55:07;;;;;;;8.23;3.22;;;;;;;;;;4988911;28;20061;-85
2023/01/14 05:57:35;;;;;;;6.25;2.13;;;;;;;;;;5026620;28;20411;-85
2023/01/14 06:00:04;;;;;;;7.90;2.97;;;;;;;;;;4967034;28;20049;-85
2023/01/14 06:08:09;;;;;;;8.98;2.03;;;;;;;;;;4978404;28;20057;-84
2023/01/14 06:10:37;;;;;;;10.75;3.00;;;;;;;;;;5008745;28;20057;-85
2023/01/14 06:13:09;;;;;;;5.38;2.78;;;;;;;;;;4992366;28;20054;-86
2023/01/14 06:15:39;;;;;;;4.53;2.25;;;;;;;;;;4990783;28;20050;-85
2023/01/14 06:18:13;;;;;;;9.80;2.75;;;;;;;;;;4994952;28;20431;-85
2023/01/14 06:20:42;;;;;;;7.03;2.67;;;;;;;;;;4977873;28;20048;-85
2023/01/14 06:23:10;;;;;;;7.00;2.35;;;;;;;;;;5014072;28;20073;-85
2023/01/14 06:25:39;;;;;;;6.63;2.47;;;;;;;;;;5009578;28;20045;-85
2023/01/14 06:28:09;;;;;;;7.45;2.65;;;;;;;;;;4994955;28;20119;-85
2023/01/14 06:30:38;;;;;;;5.85;1.80;;;;;;;;;;5011114;28;20058;-84
2023/01/14 06:33:06;;;;;;;6.13;2.22;;;;;;;;;;5013482;28;20049;-85
2023/01/14 06:35:33;;;;;;;2.97;1.75;;;;;;;;;;4989381;28;20444;-85
2023/01/14 06:38:00;;;;;;;4.10;1.80;;;;;;;;;;4986781;28;20518;-85
2023/01/14 06:40:28;;;;;;;8.70;2.28;;;;;;;;;;5006564;28;20396;-85
2023/01/14 06:42:55;;;;;;;5.32;2.58;;;;;;;;;;5007453;28;20050;-84
2023/01/14 06:45:23;;;;;;;3.28;2.28;;;;;;;;;;4988481;28;20053;-85
2023/01/14 06:51:28;;;;;;;5.72;2.35;;;;;;;;;;6042463;23;20037;-87
2023/01/14 06:53:59;;;;;;;6.50;2.15;;;;;;;;;;5006856;28;20042;-89
2023/01/14 06:56:27;;;;;;;5.45;2.60;;;;;;;;;;5012355;28;20057;-87
2023/01/14 06:59:02;;;;;;;6.97;2.33;;;;;;;;;;4993080;28;20046;-89
2023/01/14 07:01:30;;;;;;;3.90;2.95;;;;;;;;;;5004068;28;20037;-89
2023/01/14 07:03:58;;;;;;;18.42;3.65;;;;;;;;;;4999886;28;20522;-89
2023/01/14 07:06:27;;;;;;;8.75;4.68;;;;;;;;;;5002031;28;20060;-90
2023/01/14 07:08:58;;;;;;;7.47;4.75;;;;;;;;;;5000938;28;20076;-89
2023/01/14 07:11:29;;;;;;;5.07;3.25;;;;;;;;;;5032702;28;20056;-90
2023/01/14 07:14:01;;;;;;;10.18;4.00;;;;;;;;;;4992710;28;20061;-89
2023/01/14 07:16:34;;;;;;;4.85;2.85;;;;;;;;;;5024566;28;20056;-91
2023/01/14 07:19:11;;;;;;;8.97;4.10;;;;;;;;;;5004593;28;20054;-90
2023/01/14 07:21:41;;;;;;;4.68;2.72;;;;;;;;;;5006788;28;20045;-91
2023/01/14 07:24:21;;;;;;;10.65;3.75;;;;;;;;;;5022213;28;20411;-90
2023/01/14 07:26:51;;;;;;;13.88;5.05;;;;;;;;;;5002590;28;20052;-88
2023/01/14 07:29:24;;;;;;;5.43;4.10;;;;;;;;;;5011090;28;20049;-88
2023/01/14 07:31:54;;;;;;;7.95;4.07;;;;;;;;;;5028938;28;21654;-88
2023/01/14 07:34:27;;;;;;;9.65;4.85;;;;;;;;;;5014563;28;20920;-89
2023/01/14 07:37:04;;;;;;;9.82;3.65;;;;;;;;;;5007586;28;20052;-89
2023/01/14 07:39:34;;;;;;;6.07;4.45;;;;;;;;;;5016468;28;20045;-88
2023/01/14 07:42:04;;;;;;;16.02;4.72;;;;;;;;;;5020618;28;20052;-89
2023/01/14 07:44:34;;;;;;;16.92;5.35;;;;;;;;;;5018490;28;20045;-88
2023/01/14 07:47:02;;;;;;;8.98;5.35;;;;;;;;;;5000027;28;20049;-88
2023/01/14 07:49:39;;;;;;;8.20;5.45;;;;;;;;;;4997589;28;20438;-90
2023/01/14 07:52:06;;;;;;;9.65;7.18;;;;;;;;;;4997343;28;20061;-88
2023/01/14 07:54:34;;;;;;;5.95;4.97;;;;;;;;;;4994366;28;20044;-88
2023/01/14 07:57:05;;;;;;;11.07;6.55;;;;;;;;;;4992147;28;20045;-88
2023/01/14 07:59:36;;;;;;;9.77;5.95;;;;;;;;;;5015771;28;20056;-89
2023/01/14 08:02:04;;;;;;;6.07;4.63;;;;;;;;;;5004183;28;20049;-88
2023/01/14 08:04:35;;;;;;;14.25;5.95;;;;;;;;;;4998820;28;20045;-89
2023/01/14 08:07:07;;;;;;;5.57;4.13;;;;;;;;;;5007656;28;20049;-91
2023/01/14 08:09:35;;;;;;;10.68;7.45;;;;;;;;;;5015198;28;20041;-91
2023/01/14 08:12:05;;;;;;;5.93;4.68;;;;;;;;;;4999680;28;20049;-90
2023/01/14 08:14:40;;;;;;;10.68;6.07;;;;;;;;;;4998250;28;20045;-90
2023/01/14 08:17:11;;;;;;;7.90;5.13;;;;;;;;;;5013055;28;20061;-90
2023/01/14 08:19:43;;;;;;;4.82;3.65;;;;;;;;;;5013434;28;20053;-89
2023/01/14 08:22:12;;;;;;;10.00;5.00;;;;;;;;;;4995261;28;20045;-89
2023/01/14 08:24:41;;;;;;;7.30;4.53;;;;;;;;;;4995604;28;20046;-93
2023/01/14 08:27:11;;;;;;;6.53;4.80;;;;;;;;;;5004320;28;20052;-89
2023/01/14 08:29:45;;;;;;;9.65;5.85;;;;;;;;;;4996747;28;20060;-90
2023/01/14 08:32:17;;;;;;;;;;;;;;;;;;5005053;28;20045;-89
2023/01/14 08:34:48;;;;;;;11.75;6.05;;;;;;;;;;5004446;28;19929;-89
2023/01/14 08:37:19;;;;;;;7.78;6.28;;;;;;;;;;5016497;28;20061;-88
2023/01/14 08:39:47;;;;;;;4.88;3.72;;;;;;;;;;4999545;28;20045;-89
2023/01/14 08:42:16;;;;;;;8.77;4.43;;;;;;;;;;4997832;28;20052;-89
2023/01/14 08:44:44;;;;;;;5.90;4.53;;;;;;;;;;5007959;28;20072;-90
2023/01/14 08:47:11;;;;;;;10.25;4.00;;;;;;;;;;5002453;28;20057;-89
2023/01/14 08:49:39;;;;;;;11.45;4.65;;;;;;;;;;5001471;28;20042;-89
2023/01/14 08:52:13;;;;;;;7.55;4.18;;;;;;;;;;5002079;28;20072;-89
2023/01/14 08:54:41;;;;;;;3.97;2.95;;;;;;;;;;5004558;28;20056;-89
2023/01/14 08:57:08;;;;;;;9.90;4.57;;;;;;;;;;5001341;28;20057;-89
2023/01/14 08:59:38;;;;;;;5.93;3.83;;;;;;;;;;5001629;28;20419;-90
2023/01/14 09:02:17;;;;;;;7.43;3.55;;;;;;;;;;5003269;28;20040;-88
2023/01/14 09:04:47;;;;;;;7.97;3.58;;;;;;;;;;4999434;28;20049;-89
2023/01/14 09:18:26;;;;;;;9.15;5.05;;;;;;;;;;5009942;28;20057;-90
2023/01/14 09:21:06;;;;;;;12.85;6.43;;;;;;;;;;5001916;28;20061;-90
2023/01/14 09:23:36;;;;;;;10.75;6.13;;;;;;;;;;4977632;28;20045;-89
2023/01/14 09:26:06;;;;;;;6.30;4.68;;;;;;;;;;4999689;28;20060;-91
2023/01/14 09:28:36;;;;;;;8.95;7.07;;;;;;;;;;5000150;28;20072;-91
2023/01/14 09:31:06;;;;;;;10.60;7.35;;;;;;;;;;4997151;28;20045;-90
2023/01/14 09:33:34;;;;;;;12.93;6.32;;;;;;;;;;5009470;28;20054;-91
2023/01/14 09:36:01;;;;;;;13.73;6.80;;;;;;;;;;5021835;28;20049;-90
2023/01/14 09:38:34;;;;;;;5.13;4.38;;;;;;;;;;5005337;28;20049;-91
2023/01/14 09:41:15;;;;;;;9.65;5.00;;;;;;;;;;5000699;28;20045;-92
2023/01/14 09:43:45;;;;;;;7.05;3.85;;;;;;;;;;5018441;28;20057;-90
2023/01/14 09:46:14;;;;;;;10.65;4.28;;;;;;;;;;5005798;28;20669;-90
2023/01/14 09:48:42;;;;;;;6.03;3.75;;;;;;;;;;5006524;28;20056;-90
2023/01/14 09:51:20;;;;;;;5.22;3.85;;;;;;;;;;5016466;28;20050;-91
2023/01/14 09:54:02;;;;;;;6.55;2.95;;;;;;;;;;5033992;28;20053;-91
2023/01/14 09:56:36;;;;;;;5.47;4.82;;;;;;;;;;5016108;28;20414;-91
2023/01/14 09:59:10;;;;;;;6.70;4.18;;;;;;;;;;4994739;28;20053;-90
2023/01/14 10:01:50;;;;;;;8.82;4.45;;;;;;;;;;4994892;28;20048;-91
2023/01/14 10:04:28;;;;;;;;;;;;;;;;;;5000462;28;20056;-89
2023/01/14 10:06:57;;;;;;;11.52;4.40;;;;;;;;;;5013189;28;19929;-89
2023/01/14 10:09:34;;;;;;;9.82;4.25;;;;;;;;;;5015190;28;20053;-89
2023/01/14 10:12:11;;;;;;;5.68;4.18;;;;;;;;;;4992371;28;20041;-90
2023/01/14 10:14:52;;;;;;;8.38;3.50;;;;;;;;;;4990680;28;20049;-91
2023/01/14 10:17:26;;;;;;;4.85;3.42;;;;;;;;;;5005008;28;20061;-90
2023/01/14 10:20:08;;;;;;;8.73;3.83;;;;;;;;;;4999121;28;20494;-90
2023/01/14 10:22:39;;;;;;;5.57;3.38;;;;;;;;;;4996264;28;20060;-90
2023/01/14 10:25:15;;;;;;;6.72;3.55;;;;;;;;;;4997272;28;20057;-91
2023/01/14 10:27:47;;;;;;;14.52;3.92;;;;;;;;;;5018148;28;20069;-90
2023/01/14 10:30:18;;;;;;;6.13;3.22;;;;;;;;;;5014073;28;20053;-92
2023/01/14 10:33:00;;;;;;;4.35;3.40;;;;;;;;;;5000962;28;20056;-90
2023/01/14 10:35:31;;;;;;;6.72;3.40;;;;;;;;;;5005813;28;20049;-89
2023/01/14 10:38:42;;;;;;;6.40;3.10;;;;;;;;;;4997325;23;20053;-83
2023/01/14 10:42:10;;;;;;;;;;;;;;;;;;;;;
2023/01/14 10:45:49;;;;;;;5.93;3.63;;;;;;;;;;4944563;28;20185;-83
2023/01/14 10:48:37;;;;;;;12.27;4.18;;;;;;;;;;4985800;28;20050;-83
2023/01/14 10:51:36;;;;;;;5.20;3.45;;;;;;;;;;4971904;28;20069;-84
2023/01/14 10:54:19;;;;;;;6.68;2.92;;;;;;;;;;4985467;28;20058;-84
2023/01/14 10:57:41;;;;;;;3.38;2.85;;;;;;;;;;5014644;23;20431;-84
2023/01/14 11:00:29;;;;;;;7.30;3.55;;;;;;;;;;4990727;28;20043;-82
2023/01/14 11:02:59;;;;;;;10.80;3.58;;;;;;;;;;4981887;28;20042;-84
2023/01/14 11:05:32;;;;;;;5.38;3.65;;;;;;;;;;5007882;28;20412;-84
2023/01/14 11:08:16;;;;;;;6.18;3.47;;;;;;;;;;5007534;28;20046;-84
2023/01/14 11:10:53;;;;;;;5.57;2.70;;;;;;;;;;4989198;28;20057;-84
2023/01/14 11:13:27;;;;;;;5.68;2.10;;;;;;;;;;4992616;28;20042;-84
2023/01/14 11:15:54;;;;;;;4.68;1.98;;;;;;;;;;4988040;28;20053;-84
2023/01/14 11:18:25;;;;;;;7.20;3.15;;;;;;;;;;5006169;28;20467;-86
2023/01/14 11:20:57;;;;;;;6.43;3.83;;;;;;;;;;4975238;28;20058;-84
2023/01/14 11:23:28;;;;;;;6.05;2.85;;;;;;;;;;5011040;28;20042;-84
2023/01/14 11:25:55;;;;;;;6.22;3.33;;;;;;;;;;4987259;28;20069;-84
2023/01/14 11:28:25;;;;;;;5.78;3.20;;;;;;;;;;4976187;28;20072;-84
2023/01/14 11:30:54;;;;;;;6.15;2.50;;;;;;;;;;4976169;28;20064;-84
2023/01/14 11:33:25;;;;;;;7.53;3.40;;;;;;;;;;4974463;28;20053;-84
2023/01/14 11:35:57;;;;;;;11.88;3.35;;;;;;;;;;4972447;28;20265;-84
2023/01/14 11:38:26;;;;;;;6.50;4.22;;;;;;;;;;4993682;28;20053;-85
2023/01/14 11:43:53;;;;;;;3.97;3.03;;;;;;;;;;4985347;28;20065;-84
2023/01/14 11:46:23;;;;;;;6.95;2.65;;;;;;;;;;4993508;28;20404;-84
2023/01/14 11:49:01;;;;;;;6.53;2.78;;;;;;;;;;5009439;28;20500;-84
2023/01/14 11:51:30;;;;;;;6.85;3.17;;;;;;;;;;4995320;28;20068;-84
2023/01/14 11:54:04;;;;;;;6.57;3.80;;;;;;;;;;4977820;28;20045;-84
2023/01/14 11:56:33;;;;;;;5.50;3.28;;;;;;;;;;4999048;28;20050;-84
2023/01/14 11:59:13;;;;;;;6.13;3.92;;;;;;;;;;4973045;28;20538;-85
2023/01/14 12:01:46;;;;;;;7.47;4.72;;;;;;;;;;5002705;28;20057;-85
2023/01/14 12:04:18;;;;;;;6.40;4.13;;;;;;;;;;5002095;28;20038;-85
2023/01/14 12:06:51;;;;;;;14.65;3.72;;;;;;;;;;5003744;28;20069;-85
2023/01/14 12:09:26;;;;;;;8.88;3.42;;;;;;;;;;5038714;23;20054;-84
2023/01/14 12:29:13;;;;;;;18.33;3.85;;;;;;;;;;4784699;29;20054;-85
2023/01/14 12:31:47;;;;;;;8.80;5.40;;;;;;;;;;4966521;28;20057;-85
2023/01/14 12:34:21;;;;;;;11.55;4.13;;;;;;;;;;4940465;28;20050;-85
2023/01/14 12:36:51;;;;;;;7.20;3.92;;;;;;;;;;4943700;28;20497;-86
2023/01/14 12:54:01;;;;;;;10.35;4.45;;;;;;;;;;1394583;26;20142;-85
2023/01/14 12:56:30;;;;;;;7.45;3.97;;;;;;;;;;4996765;28;20054;-85
2023/01/14 12:59:00;;;;;;;11.82;3.75;;;;;;;;;;5028428;28;20049;-85
2023/01/14 13:01:32;;;;;;;9.32;4.35;;;;;;;;;;5014484;28;20057;-85
2023/01/14 13:04:02;;;;;;;9.27;4.45;;;;;;;;;;5013199;28;20112;-85
2023/01/14 13:06:33;;;;;;;8.02;6.82;;;;;;;;;;5026678;28;20414;-83
2023/01/14 13:09:01;;;;;;;9.95;6.30;;;;;;;;;;5009636;28;20061;-84
2023/01/14 13:11:29;;;;;;;11.48;5.25;;;;;;;;;;5031473;28;20593;-84
2023/01/14 13:13:58;;;;;;;9.07;6.53;;;;;;;;;;5003097;28;20045;-84
2023/01/14 13:16:37;;;;;;;9.13;5.32;;;;;;;;;;5029845;28;20049;-84
2023/01/14 13:19:34;;;;;;;6.50;5.32;;;;;;;;;;5025851;28;20054;-83
2023/01/14 13:22:05;;;;;;;8.30;4.93;;;;;;;;;;5026560;28;20411;-84
2023/01/14 13:24:37;;;;;;;10.38;4.95;;;;;;;;;;5025949;28;20046;-84
2023/01/14 13:27:32;;;;;;;9.27;6.30;;;;;;;;;;5002098;28;20061;-83
2023/01/14 13:30:32;;;;;;;12.88;4.70;;;;;;;;;;5020051;28;20076;-84
2023/01/14 13:33:07;;;;;;;14.02;6.38;;;;;;;;;;5026928;28;20060;-84
2023/01/14 13:35:35;;;;;;;14.88;6.97;;;;;;;;;;5009000;28;20053;-84
2023/01/14 13:38:03;;;;;;;10.63;5.35;;;;;;;;;;4985013;28;20392;-84
2023/01/14 13:40:32;;;;;;;12.00;7.30;;;;;;;;;;5026661;28;20415;-83
2023/01/14 13:43:01;;;;;;;8.07;5.78;;;;;;;;;;4988541;28;20445;-84
2023/01/14 13:45:33;;;;;;;14.00;5.18;;;;;;;;;;5011586;28;20068;-84
2023/01/14 13:48:01;;;;;;;8.75;5.30;;;;;;;;;;5009692;28;20522;-83
2023/01/14 13:50:33;;;;;;;7.88;4.68;;;;;;;;;;5009455;28;20443;-84
2023/01/14 13:53:04;;;;;;;11.32;4.45;;;;;;;;;;5026851;28;20053;-83
2023/01/14 13:55:33;;;;;;;7.35;3.92;;;;;;;;;;5011611;28;20417;-83
2023/01/14 13:58:02;;;;;;;6.40;4.60;;;;;;;;;;5010379;28;20046;-83
2023/01/14 14:00:40;;;;;;;6.03;4.65;;;;;;;;;;5026933;28;20049;-84
2023/01/14 14:03:38;;;;;;;8.13;4.78;;;;;;;;;;4991949;28;20072;-84
2023/01/14 14:06:40;;;;;;;5.22;4.72;;;;;;;;;;5008863;28;20048;-84
2023/01/14 14:09:12;;;;;;;11.63;5.13;;;;;;;;;;5007964;28;20053;-84
2023/01/14 14:11:54;;;;;;;9.65;5.00;;;;;;;;;;4991017;28;20056;-84
2023/01/14 14:14:25;;;;;;;12.13;7.57;;;;;;;;;;5009043;28;20049;-84
2023/01/14 14:16:55;;;;;;;;;;;;;;;;;;5027557;28;20057;-84
2023/01/14 14:19:24;;;;;;;12.75;7.75;;;;;;;;;;4999053;28;19929;-84
2023/01/14 14:21:58;;;;;;;15.40;6.57;;;;;;;;;;5012596;28;20500;-84
2023/01/14 14:24:27;;;;;;;7.63;5.72;;;;;;;;;;5001447;28;20046;-84
2023/01/14 14:26:56;;;;;;;6.03;4.43;;;;;;;;;;5027288;28;20052;-84
2023/01/14 14:29:24;;;;;;;7.18;4.60;;;;;;;;;;4992261;28;20056;-84
2023/01/14 14:31:52;;;;;;;6.80;4.78;;;;;;;;;;5008368;28;20430;-84
2023/01/14 14:34:22;;;;;;;8.70;5.57;;;;;;;;;;5009450;28;20416;-84
2023/01/14 14:36:56;;;;;;;6.97;4.50;;;;;;;;;;4996183;28;20124;-84
2023/01/14 14:39:30;;;;;;;16.52;5.97;;;;;;;;;;5026984;28;20072;-84
2023/01/14 14:42:03;;;;;;;6.82;4.80;;;;;;;;;;4993691;28;20829;-84
2023/01/14 14:44:31;;;;;;;12.68;6.05;;;;;;;;;;5030016;28;20069;-84
2023/01/14 14:47:15;;;;;;;12.73;8.85;;;;;;;;;;4993444;28;20173;-84
2023/01/14 14:49:45;;;;;;;10.23;6.40;;;;;;;;;;5012578;28;20510;-83
2023/01/14 14:52:16;;;;;;;9.07;6.50;;;;;;;;;;5022477;28;20053;-84
2023/01/14 14:54:47;;;;;;;8.10;5.82;;;;;;;;;;5012125;28;20049;-84
2023/01/14 14:57:17;;;;;;;5.85;4.47;;;;;;;;;;5030081;28;20045;-84
2023/01/14 14:59:51;;;;;;;6.35;3.85;;;;;;;;;;5013425;28;20427;-84
2023/01/14 15:02:25;;;;;;;3.60;2.80;;;;;;;;;;5031442;28;20045;-84
2023/01/14 15:04:52;;;;;;;;;;;;;;;;;;5019823;28;20053;-84
2023/01/14 15:07:21;;;;;;;4.25;2.95;;;;;;;;;;4998644;28;19921;-84
2023/01/14 15:09:49;;;;;;;4.90;3.83;;;;;;;;;;5026485;28;20057;-85
2023/01/14 15:12:18;;;;;;;3.60;2.13;;;;;;;;;;5017610;28;20407;-85
2023/01/14 15:14:55;;;;;;;3.03;2.33;;;;;;;;;;5032021;28;20064;-85
2023/01/14 15:17:22;;;;;;;1.77;1.63;;;;;;;;;;5005578;28;20046;-84
2023/01/14 15:19:53;;;;;;;7.32;1.38;;;;;;;;;;5009658;28;20049;-85
2023/01/14 15:22:23;;;;;;;2.78;1.55;;;;;;;;;;5029617;28;20455;-84
2023/01/14 15:24:52;;;;;;;3.50;1.60;;;;;;;;;;5010402;28;20045;-84
2023/01/14 15:27:29;;;;;;;1.83;1.30;;;;;;;;;;5004766;28;20060;-84
2023/01/14 15:29:57;;;;;;;2.00;1.85;;;;;;;;;;5022403;28;20297;-84
2023/01/14 15:32:29;;;;;;;3.22;1.88;;;;;;;;;;5027473;28;20399;-84
2023/01/14 15:35:19;;;;;;;5.43;1.58;;;;;;;;;;5002413;28;20064;-84
2023/01/14 15:37:51;;;;;;;2.55;1.38;;;;;;;;;;5016288;28;20056;-84
2023/01/14 15:40:20;;;;;;;1.63;0.90;;;;;;;;;;5031292;28;20060;-84
2023/01/14 15:42:48;;;;;;;2.25;1.70;;;;;;;;;;4987601;28;20053;-84
2023/01/14 15:45:21;;;;;;;1.73;1.55;;;;;;;;;;4995063;28;20064;-84
2023/01/14 15:47:48;;;;;;;4.00;3.15;;;;;;;;;;5028755;28;20068;-84
2023/01/14 15:50:21;;;;;;;14.77;8.15;;;;;;;;;;5027782;28;20045;-84
2023/01/14 15:53:06;;;;;;;8.68;5.53;;;;;;;;;;5029486;28;20056;-85
2023/01/14 15:55:33;;;;;;;11.85;5.68;;;;;;;;;;5026651;28;20049;-84
2023/01/14 15:58:00;;;;;;;10.77;5.30;;;;;;;;;;4993711;28;20042;-84
2023/01/14 16:00:29;;;;;;;4.22;2.28;;;;;;;;;;5010230;28;20053;-84
2023/01/14 16:03:00;;;;;;;3.45;2.85;;;;;;;;;;5023406;28;20396;-84
2023/01/14 16:05:35;;;;;;;4.57;3.55;;;;;;;;;;5009201;28;20044;-83
2023/01/14 16:08:15;;;;;;;6.07;2.70;;;;;;;;;;4992374;28;20057;-83
2023/01/14 16:10:43;;;;;;;2.13;1.40;;;;;;;;;;5007335;28;20068;-82
2023/01/14 16:13:14;;;;;;;7.15;4.80;;;;;;;;;;5028191;28;20065;-83
2023/01/14 16:15:46;;;;;;;5.45;3.58;;;;;;;;;;5003515;28;20049;-83
2023/01/14 16:18:15;;;;;;;4.30;2.35;;;;;;;;;;5004649;28;20776;-82